createdAt,value
2023-03-04T00:02:23.130Z,16.60
2023-03-04T00:04:50.120Z,15.85
2023-03-04T00:07:18.733Z,16.15
2023-03-04T00:09:46.787Z,15.93
2023-03-04T00:12:13.787Z,14.32
2023-03-04T00:14:41.119Z,14.77
2023-03-04T00:17:08.051Z,14.90
2023-03-04T00:19:35.398Z,15.18
2023-03-04T00:22:03.830Z,13.88
2023-03-04T00:24:31.278Z,12.85
2023-03-04T00:26:58.090Z,14.07
2023-03-04T00:29:24.963Z,15.68
2023-03-04T00:31:51.948Z,14.65
2023-03-04T00:34:19.122Z,14.60
2023-03-04T00:36:46.003Z,15.82
2023-03-04T00:39:14.080Z,14.38
2023-03-04T00:41:41.050Z,14.48
2023-03-04T00:44:08.499Z,14.73
2023-03-04T00:46:35.754Z,13.35
2023-03-04T00:49:02.533Z,13.85
2023-03-04T00:51:29.334Z,14.45
2023-03-04T00:53:56.090Z,13.93
2023-03-04T00:56:22.899Z,13.85
2023-03-04T00:58:49.653Z,13.57
2023-03-04T01:01:16.573Z,13.95
2023-03-04T01:03:43.425Z,12.95
2023-03-04T01:06:11.374Z,14.25
2023-03-04T01:08:39.520Z,14.23
2023-03-04T01:11:07.288Z,13.98
2023-03-04T01:13:34.389Z,14.77
2023-03-04T01:16:01.327Z,13.95
2023-03-04T01:18:28.167Z,12.88
2023-03-04T01:20:55.072Z,13.20
2023-03-04T01:23:21.893Z,13.48
2023-03-04T01:25:48.677Z,12.98
2023-03-04T01:28:15.434Z,12.73
2023-03-04T01:30:42.287Z,13.38
2023-03-04T01:33:09.104Z,14.43
2023-03-04T01:35:36.242Z,14.45
2023-03-04T01:38:04.280Z,14.38
2023-03-04T01:40:32.129Z,14.23
2023-03-04T01:42:59.376Z,14.20
2023-03-04T01:45:26.238Z,13.82
2023-03-04T01:47:53.158Z,14.18
2023-03-04T01:50:34.102Z,13.02
2023-03-04T01:53:02.765Z,14.05
2023-03-04T01:55:30.857Z,12.07
2023-03-04T01:57:57.809Z,13.02
2023-03-04T02:00:30.887Z,12.95
2023-03-04T02:03:07.701Z,13.10
2023-03-04T02:05:37.874Z,13.27
2023-03-04T02:08:05.253Z,14.25
2023-03-04T02:10:32.611Z,13.30
2023-03-04T02:13:00.715Z,14.00
2023-03-04T02:15:29.177Z,12.65
2023-03-04T02:17:56.617Z,13.57
2023-03-04T02:20:35.813Z,13.45
2023-03-04T02:23:41.267Z,12.85
2023-03-04T02:26:27.262Z,12.77
2023-03-04T02:28:57.400Z,12.60
2023-03-04T02:31:34.974Z,12.68
2023-03-04T02:34:07.178Z,12.73
2023-03-04T02:36:35.246Z,12.55
2023-03-04T02:39:10.416Z,12.85
2023-03-04T02:41:37.854Z,13.13
2023-03-04T02:44:18.220Z,13.50
2023-03-04T02:46:45.915Z,13.07
2023-03-04T02:49:13.566Z,14.85
2023-03-04T02:51:40.355Z,14.57
2023-03-04T02:54:16.760Z,14.70
2023-03-04T02:56:49.028Z,13.35
2023-03-04T02:59:17.119Z,13.23
2023-03-04T03:01:44.098Z,13.75
2023-03-04T03:04:12.777Z,13.27
2023-03-04T03:06:40.860Z,13.68
2023-03-04T03:09:08.531Z,12.65
2023-03-04T03:11:35.719Z,13.52
2023-03-04T03:14:04.006Z,13.73
2023-03-04T03:16:30.912Z,12.93
2023-03-04T03:18:58.190Z,12.18
2023-03-04T03:21:25.111Z,13.55
2023-03-04T03:23:51.932Z,12.30
2023-03-04T03:26:19.289Z,12.50
2023-03-04T03:28:46.329Z,13.18
2023-03-04T03:31:14.263Z,12.50
2023-03-04T03:33:41.128Z,12.60
2023-03-04T03:36:08.944Z,13.25
2023-03-04T03:38:35.849Z,12.88
2023-03-04T03:41:02.644Z,12.68
2023-03-04T03:43:29.425Z,13.25
2023-03-04T03:45:56.316Z,12.93
2023-03-04T03:48:23.261Z,12.77
2023-03-04T03:50:50.055Z,12.77
2023-03-04T03:53:16.835Z,12.80
2023-03-04T03:55:43.606Z,12.52
2023-03-04T03:58:10.373Z,12.60
2023-03-04T04:00:37.184Z,12.85
2023-03-04T04:03:04.142Z,12.65
2023-03-04T04:05:30.939Z,13.55
2023-03-04T04:07:57.709Z,12.90
2023-03-04T04:10:24.551Z,14.05
2023-03-04T04:12:51.310Z,13.30
2023-03-04T04:15:18.091Z,13.05
2023-03-04T04:17:44.858Z,13.38
2023-03-04T04:20:12.055Z,11.95
2023-03-04T04:22:38.921Z,13.52
2023-03-04T04:25:08.689Z,13.98
2023-03-04T04:30:02.319Z,10.77
2023-03-04T04:32:29.108Z,12.40
2023-03-04T04:34:55.897Z,13.52
2023-03-04T04:37:22.672Z,12.80
2023-03-04T04:39:51.576Z,12.77
2023-03-04T04:42:18.367Z,12.13
2023-03-04T04:44:45.543Z,13.80
2023-03-04T04:47:12.380Z,14.48
2023-03-04T04:49:39.209Z,13.13
2023-03-04T04:52:06.046Z,13.65
2023-03-04T04:54:32.896Z,13.23
2023-03-04T04:56:59.642Z,12.55
2023-03-04T04:59:26.933Z,13.60
2023-03-04T05:01:53.853Z,13.48
2023-03-04T05:04:20.602Z,13.20
2023-03-04T05:06:47.468Z,12.05
2023-03-04T05:09:14.218Z,12.90
2023-03-04T05:11:40.979Z,12.75
2023-03-04T05:14:07.746Z,11.73
2023-03-04T05:16:34.526Z,12.98
2023-03-04T05:19:01.302Z,13.15
2023-03-04T05:21:28.126Z,13.77
2023-03-04T05:23:55.080Z,13.95
2023-03-04T05:26:21.875Z,13.23
2023-03-04T05:28:48.725Z,13.45
2023-03-04T05:31:15.752Z,14.82
2023-03-04T05:33:42.533Z,13.55
2023-03-04T05:36:09.942Z,13.98
2023-03-04T05:38:37.196Z,12.55
2023-03-04T05:41:06.693Z,11.85
2023-03-04T05:43:35.963Z,12.85
2023-03-04T05:46:04.254Z,10.48
2023-03-04T05:48:31.221Z,11.38
2023-03-04T05:51:00.908Z,11.93
2023-03-04T05:55:56.004Z,12.25
2023-03-04T05:58:23.114Z,12.43
2023-03-04T06:00:50.088Z,12.18
2023-03-04T06:03:20.323Z,13.00
2023-03-04T06:05:47.654Z,11.93
2023-03-04T06:08:15.060Z,12.77
2023-03-04T06:10:42.450Z,11.82
2023-03-04T06:13:09.831Z,13.93
2023-03-04T06:15:37.081Z,12.52
2023-03-04T06:18:04.029Z,13.40
2023-03-04T06:20:30.900Z,13.52
2023-03-04T06:22:57.708Z,12.45
2023-03-04T06:25:24.755Z,13.23
2023-03-04T06:27:52.264Z,12.45
2023-03-04T06:30:20.190Z,13.43
2023-03-04T06:32:47.901Z,14.80
2023-03-04T06:35:16.910Z,16.48
2023-03-04T06:37:44.099Z,15.95
2023-03-04T06:40:13.305Z,16.23
2023-03-04T06:42:40.769Z,16.48
2023-03-04T06:45:09.644Z,16.00
2023-03-04T06:47:36.569Z,16.80
2023-03-04T06:50:05.392Z,14.55
2023-03-04T06:52:32.236Z,13.43
2023-03-04T06:54:58.992Z,12.98
2023-03-04T06:57:25.797Z,13.60
2023-03-04T06:59:52.582Z,15.50
2023-03-04T07:02:19.362Z,13.77
2023-03-04T07:04:46.173Z,15.95
2023-03-04T07:07:12.966Z,17.48
2023-03-04T07:09:39.806Z,15.85
2023-03-04T07:12:06.669Z,16.77
2023-03-04T07:14:33.578Z,16.40
2023-03-04T07:17:00.365Z,17.30
2023-03-04T07:19:27.184Z,16.90
2023-03-04T07:21:53.987Z,16.70
2023-03-04T07:24:20.858Z,17.70
2023-03-04T07:26:47.646Z,15.93
2023-03-04T07:29:14.468Z,18.00
2023-03-04T07:31:41.369Z,15.93
2023-03-04T07:34:13.222Z,16.40
2023-03-04T07:36:40.794Z,15.98
2023-03-04T07:39:08.687Z,16.38
2023-03-04T07:41:36.775Z,16.30
2023-03-04T07:44:05.616Z,16.48
2023-03-04T07:46:33.032Z,15.52
2023-03-04T07:48:59.852Z,17.05
2023-03-04T07:51:27.772Z,16.55
2023-03-04T07:53:58.656Z,15.85
2023-03-04T07:56:29.984Z,14.55
2023-03-04T07:58:57.364Z,14.98
2023-03-04T08:01:28.195Z,14.60
2023-03-04T08:03:55.546Z,16.13
2023-03-04T08:06:23.581Z,15.70
2023-03-04T08:08:56.560Z,14.70
2023-03-04T08:11:23.564Z,14.43
2023-03-04T08:13:50.609Z,15.55
2023-03-04T08:16:19.300Z,15.57
2023-03-04T08:18:49.339Z,14.23
2023-03-04T08:21:20.844Z,15.93
2023-03-04T08:23:48.497Z,16.05
2023-03-04T08:26:24.241Z,15.27
2023-03-04T08:28:52.057Z,14.63
2023-03-04T08:31:19.537Z,14.80
2023-03-04T08:33:46.806Z,14.23
2023-03-04T08:36:15.428Z,15.23
2023-03-04T08:38:42.759Z,14.35
2023-03-04T08:41:09.749Z,15.60
2023-03-04T08:43:36.711Z,15.95
2023-03-04T08:46:04.632Z,15.55
2023-03-04T08:48:31.608Z,14.63
2023-03-04T08:50:58.693Z,16.33
2023-03-04T08:53:25.575Z,14.20
2023-03-04T08:55:53.351Z,15.18
2023-03-04T08:58:20.488Z,16.95
2023-03-04T09:00:48.737Z,15.88
2023-03-04T09:03:16.370Z,17.58
2023-03-04T09:05:45.416Z,17.00
2023-03-04T09:08:13.264Z,17.60
2023-03-04T09:10:40.406Z,17.63
2023-03-04T09:13:07.301Z,17.90
2023-03-04T09:15:37.610Z,16.30
2023-03-04T09:18:05.898Z,17.77
2023-03-04T09:20:34.661Z,17.55
2023-03-04T09:23:01.479Z,18.92
2023-03-04T09:25:28.615Z,19.02
2023-03-04T09:27:55.424Z,18.92
2023-03-04T09:30:22.263Z,21.65
2023-03-04T09:32:49.134Z,22.52
2023-03-04T09:35:16.058Z,20.73
2023-03-04T09:37:42.998Z,19.98
2023-03-04T09:40:18.501Z,21.00
2023-03-04T09:42:51.053Z,21.77
2023-03-04T09:45:22.507Z,20.50
2023-03-04T09:47:53.187Z,21.05
2023-03-04T09:50:21.329Z,21.45
2023-03-04T09:53:20.116Z,21.75
2023-03-04T09:55:51.356Z,21.15
2023-03-04T09:58:44.467Z,21.25
2023-03-04T10:01:26.622Z,22.23
2023-03-04T10:03:59.914Z,21.67
2023-03-04T10:06:27.799Z,22.85
2023-03-04T10:09:02.743Z,22.58
2023-03-04T10:11:44.841Z,21.58
2023-03-04T10:14:40.312Z,21.52
2023-03-04T10:17:13.625Z,22.70
2023-03-04T10:19:58.332Z,22.25
2023-03-04T10:22:56.946Z,23.67
2023-03-04T10:25:27.064Z,22.63
2023-03-04T10:28:05.174Z,22.33
2023-03-04T10:30:57.715Z,21.98
2023-03-04T10:33:34.946Z,23.13
2023-03-04T10:36:24.142Z,23.10
2023-03-04T10:39:15.218Z,22.15
2023-03-04T10:42:14.183Z,24.13
2023-03-04T10:45:00.723Z,22.52
2023-03-04T10:47:31.252Z,24.30
2023-03-04T10:50:01.186Z,24.83
2023-03-04T10:55:20.076Z,22.17
2023-03-04T10:57:57.714Z,22.65
2023-03-04T11:00:36.997Z,23.27
2023-03-04T11:03:33.574Z,23.50
2023-03-04T11:06:22.820Z,23.02
2023-03-04T11:08:59.075Z,23.60
2023-03-04T11:11:42.886Z,23.20
2023-03-04T11:14:41.271Z,24.02
2023-03-04T11:17:25.052Z,22.88
2023-03-04T11:20:05.131Z,23.00
2023-03-04T11:22:32.462Z,22.77
2023-03-04T11:25:07.145Z,22.67
2023-03-04T11:27:48.824Z,22.85
2023-03-04T11:30:39.872Z,22.58
2023-03-04T11:33:42.196Z,23.85
2023-03-04T11:36:34.940Z,22.23
2023-03-04T11:39:05.723Z,23.60
2023-03-04T11:41:36.654Z,22.77
2023-03-04T11:44:07.190Z,22.15
2023-03-04T11:47:04.032Z,21.85
2023-03-04T11:50:16.442Z,21.35
2023-03-04T11:53:16.733Z,20.45
2023-03-04T11:56:13.280Z,21.48
2023-03-04T11:59:16.525Z,21.23
2023-03-04T12:01:49.274Z,22.83
2023-03-04T12:04:46.851Z,21.23
2023-03-04T12:07:45.180Z,21.20
2023-03-04T12:10:39.891Z,22.33
2023-03-04T12:13:50.368Z,20.77
2023-03-04T12:16:47.149Z,20.55
2023-03-04T12:19:51.578Z,22.23
2023-03-04T12:22:43.228Z,21.58
2023-03-04T12:25:36.612Z,22.58
2023-03-04T12:28:44.975Z,22.23
2023-03-04T12:31:37.509Z,22.88
2023-03-04T12:34:27.656Z,21.77
2023-03-04T12:37:09.809Z,22.65
2023-03-04T12:39:50.944Z,23.20
2023-03-04T12:42:38.917Z,22.45
2023-03-04T12:45:29.088Z,21.38
2023-03-04T12:48:33.386Z,22.52
2023-03-04T12:51:21.893Z,21.10
2023-03-04T12:54:33.693Z,21.02
2023-03-04T12:57:21.493Z,19.77
2023-03-04T13:00:04.553Z,23.02
2023-03-04T13:02:49.924Z,21.05
2023-03-04T13:05:53.862Z,24.90
2023-03-04T13:09:00.046Z,23.40
2023-03-04T13:11:26.750Z,22.38
2023-03-04T13:14:15.025Z,22.38
2023-03-04T13:16:46.423Z,22.10
2023-03-04T13:19:56.269Z,21.92
2023-03-04T13:22:39.264Z,20.65
2023-03-04T13:25:45.962Z,20.80
2023-03-04T13:28:21.320Z,20.08
2023-03-04T13:30:59.245Z,20.55
2023-03-04T13:33:25.892Z,20.73
2023-03-04T13:36:52.621Z,20.58
2023-03-04T13:39:25.629Z,19.70
2023-03-04T13:41:55.247Z,21.05
2023-03-04T13:44:57.773Z,18.85
2023-03-04T13:47:43.501Z,19.23
2023-03-04T13:50:25.204Z,19.13
2023-03-04T13:52:52.760Z,19.85
2023-03-04T13:55:38.910Z,20.15
2023-03-04T13:58:24.319Z,18.45
2023-03-04T14:00:54.691Z,18.98
2023-03-04T14:03:29.418Z,18.80
2023-03-04T14:06:27.637Z,19.98
2023-03-04T14:08:56.243Z,18.17
2023-03-04T14:11:36.217Z,17.75
2023-03-04T14:14:07.374Z,19.92
2023-03-04T14:16:40.193Z,20.17
2023-03-04T14:19:16.218Z,18.50
2023-03-04T14:21:47.895Z,18.98
2023-03-04T14:24:18.806Z,18.85
2023-03-04T14:26:45.733Z,18.73
2023-03-04T14:29:42.411Z,19.58
2023-03-04T14:32:12.263Z,19.27
2023-03-04T14:37:22.262Z,20.00
2023-03-04T14:39:54.506Z,19.58
2023-03-04T14:42:36.292Z,19.05
2023-03-04T14:45:03.511Z,20.02
2023-03-04T14:47:41.879Z,20.42
2023-03-04T14:50:16.244Z,18.95
2023-03-04T14:52:54.207Z,19.73
2023-03-04T14:55:26.948Z,19.55
2023-03-04T14:58:07.173Z,18.80
2023-03-04T15:00:37.117Z,18.88
2023-03-04T15:03:26.234Z,18.42
2023-03-04T15:05:55.462Z,20.60
2023-03-04T15:08:25.652Z,18.67
2023-03-04T15:11:05.185Z,18.20
2023-03-04T15:13:49.795Z,19.48
2023-03-04T15:16:23.461Z,17.13
2023-03-04T15:19:26.165Z,18.23
2023-03-04T15:22:05.604Z,18.73
2023-03-04T15:24:32.670Z,18.30
2023-03-04T15:26:59.663Z,18.00
2023-03-04T15:29:26.682Z,18.02
2023-03-04T15:31:53.478Z,18.52
2023-03-04T15:34:20.981Z,18.10
2023-03-04T15:36:50.914Z,19.02
2023-03-04T15:41:48.476Z,17.40
2023-03-04T15:46:42.650Z,16.10
2023-03-04T15:49:09.401Z,17.35
2023-03-04T15:51:36.371Z,16.23
2023-03-04T15:54:03.883Z,16.83
2023-03-04T15:56:33.321Z,17.48
2023-03-04T15:59:15.138Z,16.02
2023-03-04T16:01:42.574Z,16.00
2023-03-04T16:04:17.130Z,16.98
2023-03-04T16:06:46.017Z,16.05
2023-03-04T16:09:16.614Z,15.95
2023-03-04T16:11:47.256Z,16.38
2023-03-04T16:14:15.522Z,15.73
2023-03-04T16:16:43.969Z,15.85
2023-03-04T16:19:10.748Z,15.48
2023-03-04T16:21:37.673Z,15.48
2023-03-04T16:24:05.134Z,14.27
2023-03-04T16:26:33.332Z,14.98
2023-03-04T16:29:00.415Z,14.48
2023-03-04T16:31:27.260Z,14.63
2023-03-04T16:33:55.391Z,15.30
2023-03-04T16:36:27.681Z,14.35
2023-03-04T16:39:02.633Z,14.38
2023-03-04T16:41:30.616Z,15.20
2023-03-04T16:44:00.542Z,14.40
2023-03-04T16:48:55.228Z,13.45
2023-03-04T16:51:23.378Z,13.95
2023-03-04T16:54:00.171Z,13.68
2023-03-04T16:56:27.704Z,13.77
2023-03-04T16:58:54.539Z,13.30
2023-03-04T17:01:28.514Z,13.07
2023-03-04T17:03:56.234Z,12.45
2023-03-04T17:06:24.037Z,13.13
2023-03-04T17:08:51.024Z,13.77
2023-03-04T17:11:21.578Z,13.30
2023-03-04T17:13:49.513Z,13.20
2023-03-04T17:16:16.446Z,12.90
2023-03-04T17:18:45.768Z,12.63
2023-03-04T17:21:17.533Z,13.25
2023-03-04T17:23:44.332Z,14.23
2023-03-04T17:26:12.204Z,14.15
2023-03-04T17:28:38.992Z,14.88
2023-03-04T17:31:14.264Z,13.95
2023-03-04T17:33:41.961Z,14.93
2023-03-04T17:36:11.885Z,14.45
2023-03-04T17:38:39.184Z,13.40
2023-03-04T17:41:09.116Z,14.55
2023-03-04T17:43:35.980Z,13.82
2023-03-04T17:46:07.417Z,14.27
2023-03-04T17:48:35.109Z,12.80
2023-03-04T17:51:02.400Z,13.05
2023-03-04T17:53:29.375Z,12.13
2023-03-04T17:56:00.172Z,13.38
2023-03-04T17:58:28.492Z,13.27
2023-03-04T18:01:20.377Z,13.52
2023-03-04T18:03:48.294Z,12.23
2023-03-04T18:06:15.199Z,13.82
2023-03-04T18:08:42.066Z,13.23
2023-03-04T18:11:10.180Z,13.63
2023-03-04T18:13:41.334Z,12.93
2023-03-04T18:16:08.977Z,12.35
2023-03-04T18:18:36.434Z,13.27
2023-03-04T18:21:04.178Z,13.90
2023-03-04T18:23:31.474Z,13.73
2023-03-04T18:25:58.465Z,13.60
2023-03-04T18:28:25.510Z,12.60
2023-03-04T18:30:53.402Z,14.27
2023-03-04T18:33:21.173Z,14.13
2023-03-04T18:35:48.016Z,14.93
2023-03-04T18:38:15.455Z,13.57
2023-03-04T18:40:44.343Z,14.80
2023-03-04T18:43:11.436Z,14.25
2023-03-04T18:45:38.342Z,13.98
2023-03-04T18:48:05.616Z,13.02
2023-03-04T18:50:32.385Z,13.48
2023-03-04T18:52:59.175Z,13.25
2023-03-04T18:55:26.740Z,12.73
2023-03-04T18:57:57.766Z,11.43
2023-03-04T19:00:25.252Z,13.15
2023-03-04T19:03:04.170Z,13.45
2023-03-04T19:08:00.118Z,13.27
2023-03-04T19:10:28.780Z,11.05
2023-03-04T19:12:57.363Z,12.57
2023-03-04T19:15:24.347Z,12.70
2023-03-04T19:17:51.363Z,13.05
2023-03-04T19:20:18.660Z,12.57
2023-03-04T19:22:45.653Z,11.48
2023-03-04T19:25:12.587Z,12.48
2023-03-04T19:27:39.493Z,12.48
2023-03-04T19:30:07.717Z,11.93
2023-03-04T19:32:34.641Z,12.13
2023-03-04T19:35:01.549Z,12.38
2023-03-04T19:37:28.442Z,13.43
2023-03-04T19:39:55.940Z,14.70
2023-03-04T19:42:24.083Z,13.65
2023-03-04T19:44:51.398Z,14.75
2023-03-04T19:47:18.603Z,13.88
2023-03-04T19:49:45.770Z,14.02
2023-03-04T19:52:12.551Z,14.30
2023-03-04T19:54:39.400Z,16.58
2023-03-04T19:57:06.162Z,15.13
2023-03-04T19:59:34.351Z,16.85
2023-03-04T20:02:01.259Z,16.92
2023-03-04T20:04:28.406Z,17.60
2023-03-04T20:06:55.275Z,15.98
2023-03-04T20:09:22.620Z,14.68
2023-03-04T20:11:59.133Z,14.02
2023-03-04T20:14:31.940Z,14.23
2023-03-04T20:17:02.332Z,12.52
2023-03-04T20:19:31.147Z,12.45
2023-03-04T20:21:58.258Z,12.48
2023-03-04T20:24:26.136Z,11.57
2023-03-04T20:26:53.350Z,12.80
2023-03-04T20:29:20.190Z,11.27
2023-03-04T20:31:47.062Z,11.45
2023-03-04T20:34:13.945Z,10.73
2023-03-04T20:36:40.943Z,10.57
2023-03-04T20:39:26.950Z,11.00
2023-03-04T20:41:55.605Z,11.48
2023-03-04T20:44:22.406Z,10.00
2023-03-04T20:46:49.172Z,12.75
2023-03-04T20:49:23.769Z,16.58
2023-03-04T20:51:52.339Z,17.00
2023-03-04T20:54:19.581Z,17.33
2023-03-04T20:56:47.349Z,19.17
2023-03-04T20:59:14.302Z,17.52
2023-03-04T21:01:44.895Z,17.15
2023-03-04T21:04:12.586Z,15.73
2023-03-04T21:06:40.431Z,17.33
2023-03-04T21:09:13.237Z,15.75
2023-03-04T21:11:40.795Z,15.48
2023-03-04T21:14:14.548Z,12.30
2023-03-04T21:16:42.173Z,11.38
2023-03-04T21:19:18.589Z,15.98
2023-03-04T21:21:46.764Z,16.00
2023-03-04T21:24:17.318Z,13.38
2023-03-04T21:26:45.301Z,14.43
2023-03-04T21:29:14.815Z,11.20
2023-03-04T21:31:45.665Z,9.68
2023-03-04T21:34:22.522Z,10.18
2023-03-04T21:36:49.333Z,9.75
2023-03-04T21:39:22.847Z,9.52
2023-03-04T21:41:50.032Z,9.73
2023-03-04T21:44:28.136Z,9.07
2023-03-04T21:47:00.938Z,8.40
2023-03-04T21:49:28.211Z,9.50
2023-03-04T21:51:55.108Z,9.32
2023-03-04T21:54:22.088Z,9.13
2023-03-04T21:56:50.144Z,9.88
2023-03-04T21:59:19.877Z,9.25
2023-03-04T22:01:47.179Z,8.70
2023-03-04T22:04:14.051Z,9.50
2023-03-04T22:06:41.419Z,10.02
2023-03-04T22:09:08.481Z,9.13
2023-03-04T22:11:35.294Z,9.88
2023-03-04T22:14:03.303Z,9.15
2023-03-04T22:16:33.934Z,8.20
2023-03-04T22:19:02.192Z,9.55
2023-03-04T22:21:28.985Z,10.18
2023-03-04T22:23:56.042Z,8.52
2023-03-04T22:26:29.988Z,8.65
2023-03-04T22:28:56.988Z,11.10
2023-03-04T22:31:31.187Z,11.48
2023-03-04T22:34:05.089Z,11.50
2023-03-04T22:36:35.104Z,12.35
2023-03-04T22:39:04.571Z,12.77
2023-03-04T22:41:31.445Z,14.32
2023-03-04T22:43:58.713Z,13.80
2023-03-04T22:46:31.825Z,12.90
2023-03-04T22:49:01.910Z,12.90
2023-03-04T22:51:29.313Z,13.50
2023-03-04T22:53:57.199Z,12.75
2023-03-04T22:56:24.509Z,13.25
2023-03-04T22:58:51.889Z,11.05
2023-03-04T23:01:19.997Z,10.10
2023-03-04T23:03:49.075Z,10.82
2023-03-04T23:06:25.413Z,12.43
2023-03-04T23:08:52.786Z,15.95
2023-03-04T23:11:29.033Z,17.52
2023-03-04T23:13:56.279Z,20.05
2023-03-04T23:16:25.283Z,18.95
2023-03-04T23:18:53.172Z,13.37
2023-03-04T23:21:23.837Z,9.75
2023-03-04T23:23:52.342Z,10.80
2023-03-04T23:26:26.725Z,10.13
2023-03-04T23:28:56.727Z,9.13
2023-03-04T23:31:23.876Z,9.82
2023-03-04T23:33:50.853Z,9.50
2023-03-04T23:36:19.109Z,10.00
2023-03-04T23:38:48.288Z,11.00
2023-03-04T23:41:23.092Z,9.55
2023-03-04T23:43:52.478Z,11.02
2023-03-04T23:46:19.439Z,10.48
2023-03-04T23:48:46.841Z,11.10
2023-03-04T23:51:20.239Z,9.82
2023-03-04T23:53:47.772Z,10.88
2023-03-04T23:56:19.321Z,10.65
2023-03-04T23:58:46.771Z,9.90
